Akbas, Turkey

2:15 AM +03 on January 25, 2017 (GMT +0300)
Cardak Air Base | | Change Station

Elev 2785 ft 37.78 °N, 29.70 °E | Updated 25 minutes ago

Mostly Cloudy
Mostly Cloudy
36 °F
Feels Like 33 °F
N
4
Wind Variable Wind from East

Today
High -- | Low -- °F
--% Chance of Precip.
Yesterday
High -- | Low -- °F
Precip. -- in
Pressure 29.89 in
Visibility 6.2 miles
Clouds Scattered Clouds 3500 ft
Mostly Cloudy 9000 ft
Windchill 33 °F
Dew Point 32 °F
Humidity 87%
Rainfall 0.00 in
Snow Depth Not available.
8:11 AM 6:18 PM
Waning Crescent, 9% visible
METAR LTAY 242250Z 09003KT 060V170 9999 SCT035 BKN090 02/M00 Q1012
Pressure 29.89 in
Visibility 6.2 miles
Clouds Scattered Clouds 3500 ft
Mostly Cloudy 9000 ft
Windchill 33 °F
Dew Point 32 °F
Humidity 87%
Rainfall 0.00 in
Snow Depth Not available.
8:11 AM 6:18 PM
Waning Crescent, 9% visible
METAR LTAY 242250Z 09003KT 060V170 9999 SCT035 BKN090 02/M00 Q1012

Get Your Daily Forecast Email!

Thanks for signing up!

Be on the lookout for a verification email in your inbox.

You'll start receiving the daily forecast at 8 AM.

×

10-Day Weather Forecast

×

Almanac

Astronomy

Jan. 25, 2017 Rise Set
Actual Time
Civil Twilight
Nautical Twilight
Astronomical Twilight
Moon
Length of Visible Light
Length of Day
Tomorrow will be .
, % of the Moon is Illuminated

Today's Extremes

Country Highs Country Lows

Community

WunderPhotos

Upload Photos

1,962,540 photos uploaded!

WunderBlog® & News

Nearby

Air Quality

  Air Quality AQ Index Pollutant
Not available.

Snow Depth

Station Depth Elevation

Earthquake Activity

City Distance Mag. Time & Date
Minimum magnitude displayed is 2.5.

Coastal Water Temperatures

Place Temperature

Stations

Nearby Weather Stations

Station Location Temp. Windchill Dew Point Humidity Wind Precip. Elev Updated Type